Time,TemperatureF,DewpointF,PressureIn,WindDirection,WindDirectionDegrees,WindSpeedMPH,WindSpeedGustMPH,Humidity,HourlyPrecipIn,Conditions,Clouds,dailyrainin,SolarRadiationWatts/m^2,SoftwareType,DateUTC
2013-06-16 00:00:00,46.0,24.7,29.84,WNW,285,1.0,2.0,43,0.00,,,0.00,0,Wunderground v.1.15,2013-06-16 06:00:00,
2013-06-16 00:10:00,45.9,25.2,29.84,WNW,285,0.0,0.0,44,0.00,,,0.00,0,Wunderground v.1.15,2013-06-16 06:10:00,
2013-06-16 00:20:00,45.8,26.7,29.84,WNW,286,2.0,3.0,47,0.00,,,0.00,0,Wunderground v.1.15,2013-06-16 06:20:00,
2013-06-16 00:30:00,45.7,25.0,29.85,WNW,287,3.0,3.0,44,0.00,,,0.00,0,Wunderground v.1.15,2013-06-16 06:30:00,
2013-06-16 00:41:00,45.0,25.4,29.84,WNW,287,1.0,1.0,46,0.00,,,0.00,0,Wunderground v.1.15,2013-06-16 06:41:00,
2013-06-16 00:50:00,44.8,25.8,29.84,WNW,287,0.0,2.0,47,0.00,,,0.00,0,Wunderground v.1.15,2013-06-16 06:50:00,
2013-06-16 01:10:00,44.3,26.8,29.85,WNW,287,1.0,1.0,50,0.00,,,0.00,0,Wunderground v.1.15,2013-06-16 07:10:00,
2013-06-16 01:20:00,43.7,27.2,29.85,WNW,287,0.0,2.0,52,0.00,,,0.00,0,Wunderground v.1.15,2013-06-16 07:20:00,
2013-06-16 01:40:00,43.9,25.5,29.86,WNW,287,0.0,0.0,48,0.00,,,0.00,0,Wunderground v.1.15,2013-06-16 07:40:00,
2013-06-16 01:50:00,42.9,26.9,29.86,WNW,287,0.0,0.0,53,0.00,,,0.00,0,Wunderground v.1.15,2013-06-16 07:50:00,
2013-06-16 02:00:00,42.1,26.2,29.86,WNW,287,1.0,1.0,53,0.00,,,0.00,0,Wunderground v.1.15,2013-06-16 08:00:00,
2013-06-16 02:10:00,42.6,26.6,29.86,WNW,301,1.0,2.0,53,0.00,,,0.00,0,Wunderground v.1.15,2013-06-16 08:10:00,
2013-06-16 02:20:00,42.7,27.2,29.86,WNW,303,1.0,1.0,54,0.00,,,0.00,0,Wunderground v.1.15,2013-06-16 08:20:00,
2013-06-16 02:30:00,42.1,25.3,29.86,NW,317,1.0,1.0,51,0.00,,,0.00,0,Wunderground v.1.15,2013-06-16 08:30:00,
2013-06-16 02:40:00,41.3,22.6,29.86,NW,310,0.0,0.0,47,0.00,,,0.00,0,Wunderground v.1.15,2013-06-16 08:40:00,
2013-06-16 02:50:00,41.6,25.3,29.86,NW,310,0.0,0.0,52,0.00,,,0.00,0,Wunderground v.1.15,2013-06-16 08:50:00,
2013-06-16 03:00:00,42.0,23.7,29.86,NW,310,0.0,0.0,48,0.00,,,0.00,0,Wunderground v.1.15,2013-06-16 09:00:00,
2013-06-16 03:10:00,42.5,22.6,29.87,NW,311,0.0,0.0,45,0.00,,,0.00,0,Wunderground v.1.15,2013-06-16 09:10:00,
2013-06-16 03:20:00,42.8,26.4,29.87,NW,310,0.0,0.0,52,0.00,,,0.00,0,Wunderground v.1.15,2013-06-16 09:20:00,
2013-06-16 03:30:00,42.1,26.6,29.88,NW,310,0.0,0.0,54,0.00,,,0.00,0,Wunderground v.1.15,2013-06-16 09:30:00,
2013-06-16 03:40:00,41.5,23.7,29.88,North,11,2.0,2.0,49,0.00,,,0.00,0,Wunderground v.1.15,2013-06-16 09:40:00,
2013-06-16 03:50:00,43.6,22.5,29.87,North,355,4.0,4.0,43,0.00,,,0.00,0,Wunderground v.1.15,2013-06-16 09:50:00,
2013-06-16 04:00:00,43.4,26.5,29.87,NNW,338,0.0,0.0,51,0.00,,,0.00,0,Wunderground v.1.15,2013-06-16 10:00:00,
2013-06-16 04:10:00,41.6,24.8,29.87,WSW,242,1.0,10.0,51,0.00,,,0.00,0,Wunderground v.1.15,2013-06-16 10:10:00,
2013-06-16 04:20:00,46.4,25.1,29.87,WNW,293,6.0,6.0,43,0.00,,,0.00,0,Wunderground v.1.15,2013-06-16 10:20:00,
2013-06-16 04:30:00,50.2,22.9,29.86,WSW,252,8.0,10.0,34,0.00,,,0.00,0,Wunderground v.1.15,2013-06-16 10:30:00,
2013-06-16 04:40:00,52.4,22.6,29.87,West,259,10.0,10.0,31,0.00,,,0.00,0,Wunderground v.1.15,2013-06-16 10:40:00,
2013-06-16 04:50:00,53.0,21.6,29.86,West,268,11.0,11.0,29,0.00,,,0.00,0,Wunderground v.1.15,2013-06-16 10:50:00,
2013-06-16 05:00:00,52.8,21.4,29.86,WSW,257,12.0,14.0,29,0.00,,,0.00,0,Wunderground v.1.15,2013-06-16 11:00:00,
2013-06-16 05:10:00,52.9,21.5,29.86,West,274,11.0,11.0,29,0.00,,,0.00,0,Wunderground v.1.15,2013-06-16 11:10:00,
2013-06-16 05:20:00,52.4,22.6,29.86,WSW,238,3.0,3.0,31,0.00,,,0.00,0,Wunderground v.1.15,2013-06-16 11:20:00,
2013-06-16 05:30:00,51.4,21.7,29.86,WNW,298,3.0,7.0,31,0.00,,,0.00,0,Wunderground v.1.15,2013-06-16 11:30:00,
2013-06-16 05:40:00,52.1,22.3,29.86,West,263,6.0,6.0,31,0.00,,,0.00,7,Wunderground v.1.15,2013-06-16 11:40:00,
2013-06-16 05:50:00,48.9,23.1,29.86,West,264,1.0,1.0,36,0.00,,,0.00,14,Wunderground v.1.15,2013-06-16 11:50:00,
2013-06-16 06:00:00,47.2,25.8,29.85,West,264,0.0,0.0,43,0.00,,,0.00,19,Wunderground v.1.15,2013-06-16 12:00:00,
2013-06-16 06:10:00,46.1,23.1,29.85,NNW,343,1.0,4.0,40,0.00,,,0.00,26,Wunderground v.1.15,2013-06-16 12:10:00,
2013-06-16 06:20:00,47.1,23.4,29.85,North,355,4.0,4.0,39,0.00,,,0.00,30,Wunderground v.1.15,2013-06-16 12:20:00,
2013-06-16 06:30:00,47.7,28.9,29.85,North,360,0.0,0.0,48,0.00,,,0.00,33,Wunderground v.1.15,2013-06-16 12:30:00,
2013-06-16 06:40:00,48.1,28.8,29.85,North,360,0.0,0.0,47,0.00,,,0.00,37,Wunderground v.1.15,2013-06-16 12:40:00,
2013-06-16 06:50:00,49.0,31.6,29.85,North,360,0.0,0.0,51,0.00,,,0.00,44,Wunderground v.1.15,2013-06-16 12:50:00,
2013-06-16 07:10:00,51.7,30.5,29.85,NNW,346,0.0,4.0,44,0.00,,,0.00,70,Wunderground v.1.15,2013-06-16 13:10:00,
2013-06-16 07:20:00,53.5,37.3,29.85,NNE,26,0.0,0.0,54,0.00,,,0.00,267,Wunderground v.1.15,2013-06-16 13:20:00,
2013-06-16 07:30:00,54.6,36.8,29.85,NNW,333,0.0,0.0,51,0.00,,,0.00,325,Wunderground v.1.15,2013-06-16 13:30:00,
2013-06-16 07:41:00,56.5,34.8,29.85,NNW,333,0.0,0.0,44,0.00,,,0.00,362,Wunderground v.1.15,2013-06-16 13:41:00,
2013-06-16 07:50:00,58.1,32.6,29.85,NNW,338,0.0,0.0,38,0.00,,,0.00,397,Wunderground v.1.15,2013-06-16 13:50:00,
2013-06-16 08:00:00,59.4,40.2,29.85,NW,313,0.0,0.0,49,0.00,,,0.00,434,Wunderground v.1.15,2013-06-16 14:00:00,
2013-06-16 08:11:00,60.7,34.9,29.85,NE,55,0.0,0.0,38,0.00,,,0.00,364,Wunderground v.1.15,2013-06-16 14:11:00,
2013-06-16 08:20:00,61.5,36.3,29.85,ESE,103,1.0,4.0,39,0.00,,,0.00,501,Wunderground v.1.15,2013-06-16 14:20:00,
2013-06-16 08:30:00,62.3,37.7,29.85,NW,315,1.0,1.0,40,0.00,,,0.00,533,Wunderground v.1.15,2013-06-16 14:30:00,
2013-06-16 08:41:00,63.6,35.4,29.84,SE,125,1.0,4.0,35,0.00,,,0.00,570,Wunderground v.1.15,2013-06-16 14:41:00,
2013-06-16 08:50:00,64.9,32.7,29.84,ESE,107,3.0,4.0,30,0.00,,,0.00,598,Wunderground v.1.15,2013-06-16 14:50:00,
2013-06-16 09:00:00,67.6,33.3,29.84,West,262,3.0,3.0,28,0.00,,,0.00,628,Wunderground v.1.15,2013-06-16 15:00:00,
2013-06-16 09:11:00,67.8,36.0,29.84,SSW,201,4.0,4.0,31,0.00,,,0.00,663,Wunderground v.1.15,2013-06-16 15:11:00,
2013-06-16 09:20:00,67.9,28.7,29.84,SSW,197,5.0,8.0,23,0.00,,,0.00,693,Wunderground v.1.15,2013-06-16 15:20:00,
2013-06-16 09:40:00,68.2,31.0,29.84,North,349,6.0,6.0,25,0.00,,,0.00,754,Wunderground v.1.15,2013-06-16 15:40:00,
2013-06-16 09:50:00,68.2,26.7,29.85,NW,323,6.0,6.0,21,0.00,,,0.00,642,Wunderground v.1.15,2013-06-16 15:50:00,
2013-06-16 10:00:00,69.5,29.0,29.84,NW,316,5.0,5.0,22,0.00,,,0.00,803,Wunderground v.1.15,2013-06-16 16:00:00,
2013-06-16 10:10:00,70.4,30.8,29.84,SW,224,5.0,5.0,23,0.00,,,0.00,831,Wunderground v.1.15,2013-06-16 16:10:00,
2013-06-16 10:20:00,70.5,28.7,29.83,SW,229,3.0,3.0,21,0.00,,,0.00,854,Wunderground v.1.15,2013-06-16 16:20:00,
2013-06-16 10:30:00,71.6,31.8,29.83,SSE,153,3.0,3.0,23,0.00,,,0.00,911,Wunderground v.1.15,2013-06-16 16:30:00,
2013-06-16 10:41:00,72.5,29.1,29.83,NNW,329,3.0,3.0,20,0.00,,,0.00,548,Wunderground v.1.15,2013-06-16 16:41:00,
2013-06-16 10:50:00,70.7,26.4,29.83,NNE,13,8.0,11.0,19,0.00,,,0.00,805,Wunderground v.1.15,2013-06-16 16:50:00,
2013-06-16 11:00:00,69.4,25.3,29.83,NNW,333,12.0,12.0,19,0.00,,,0.00,608,Wunderground v.1.15,2013-06-16 17:00:00,
2013-06-16 11:11:00,69.3,29.9,29.84,West,281,6.0,6.0,23,0.00,,,0.00,1009,Wunderground v.1.15,2013-06-16 17:11:00,
2013-06-16 11:30:00,70.9,26.5,29.83,SW,218,10.0,10.0,19,0.00,,,0.00,294,Wunderground v.1.15,2013-06-16 17:30:00,
2013-06-16 11:40:00,70.6,25.0,29.83,North,9,7.0,19.0,18,0.00,,,0.00,786,Wunderground v.1.15,2013-06-16 17:40:00,
2013-06-16 11:50:00,69.3,27.7,29.84,WNW,284,9.0,13.0,21,0.00,,,0.00,969,Wunderground v.1.15,2013-06-16 17:50:00,
2013-06-16 12:00:00,70.5,33.0,29.83,SW,230,4.0,4.0,25,0.00,,,0.00,1257,Wunderground v.1.15,2013-06-16 18:00:00,
2013-06-16 12:10:00,70.2,31.7,29.84,SSW,202,4.0,4.0,24,0.00,,,0.00,267,Wunderground v.1.15,2013-06-16 18:10:00,
2013-06-16 12:21:00,68.1,29.9,29.84,NW,315,11.0,11.0,24,0.00,,,0.00,383,Wunderground v.1.15,2013-06-16 18:21:00,
2013-06-16 12:30:00,70.4,32.9,29.83,NNE,17,6.0,8.0,25,0.00,,,0.00,1125,Wunderground v.1.15,2013-06-16 18:30:00,
2013-06-16 12:40:00,71.9,29.8,29.83,North,5,7.0,7.0,21,0.00,,,0.00,462,Wunderground v.1.15,2013-06-16 18:40:00,
2013-06-16 13:00:00,68.6,30.3,29.83,WSW,242,8.0,8.0,24,0.00,,,0.00,281,Wunderground v.1.15,2013-06-16 19:00:00,
2013-06-16 13:10:00,69.3,29.9,29.83,WNW,300,8.0,16.0,23,0.00,,,0.00,1220,Wunderground v.1.15,2013-06-16 19:10:00,
2013-06-16 13:20:00,67.8,29.7,29.84,North,5,10.0,10.0,24,0.00,,,0.00,192,Wunderground v.1.15,2013-06-16 19:20:00,
2013-06-16 13:30:00,67.1,28.0,29.84,WNW,298,7.0,11.0,23,0.00,,,0.00,229,Wunderground v.1.15,2013-06-16 19:30:00,
2013-06-16 13:40:00,67.4,31.3,29.83,North,360,9.0,9.0,26,0.00,,,0.00,1195,Wunderground v.1.15,2013-06-16 19:40:00,
2013-06-16 13:50:00,71.2,31.5,29.83,NNW,348,8.0,8.0,23,0.00,,,0.00,353,Wunderground v.1.15,2013-06-16 19:50:00,
2013-06-16 14:00:00,70.0,33.5,29.82,NE,45,4.0,4.0,26,0.00,,,0.00,323,Wunderground v.1.15,2013-06-16 20:00:00,
2013-06-16 14:10:00,70.8,31.1,29.81,North,355,7.0,7.0,23,0.00,,,0.00,1218,Wunderground v.1.15,2013-06-16 20:10:00,
2013-06-16 14:20:00,71.5,30.6,29.81,NNW,344,7.0,10.0,22,0.00,,,0.00,306,Wunderground v.1.15,2013-06-16 20:20:00,
2013-06-16 14:31:00,71.5,30.6,29.81,NW,309,6.0,12.0,22,0.00,,,0.00,302,Wunderground v.1.15,2013-06-16 20:31:00,
2013-06-16 14:40:00,70.2,35.5,29.81,WNW,284,6.0,6.0,28,0.00,,,0.00,330,Wunderground v.1.15,2013-06-16 20:40:00,
2013-06-16 14:50:00,69.4,38.2,29.80,ESE,103,3.0,7.0,32,0.00,,,0.00,390,Wunderground v.1.15,2013-06-16 20:50:00,
2013-06-16 15:00:00,67.8,36.0,29.80,SE,145,7.0,7.0,31,0.00,,,0.00,197,Wunderground v.1.15,2013-06-16 21:00:00,
2013-06-16 15:10:00,67.1,35.4,29.80,SSE,150,7.0,8.0,31,0.00,,,0.00,225,Wunderground v.1.15,2013-06-16 21:10:00,
2013-06-16 15:20:00,67.2,37.9,29.81,SW,231,9.0,12.0,34,0.00,,,0.00,258,Wunderground v.1.15,2013-06-16 21:20:00,
2013-06-16 15:30:00,67.0,37.7,29.81,South,191,9.0,10.0,34,0.00,,,0.00,287,Wunderground v.1.15,2013-06-16 21:30:00,
2013-06-16 15:40:00,66.6,38.1,29.81,SSW,206,9.0,9.0,35,0.00,,,0.00,214,Wunderground v.1.15,2013-06-16 21:40:00,
2013-06-16 15:50:00,66.1,36.9,29.81,SW,233,7.0,7.0,34,0.00,,,0.00,181,Wunderground v.1.15,2013-06-16 21:50:00,
2013-06-16 16:00:00,65.7,37.3,29.82,South,188,6.0,7.0,35,0.00,,,0.00,104,Wunderground v.1.15,2013-06-16 22:00:00,
2013-06-16 16:10:00,64.5,36.2,29.84,WSW,240,8.0,14.0,35,0.00,,,0.00,42,Wunderground v.1.15,2013-06-16 22:10:00,
2013-06-16 16:20:00,60.6,36.1,29.84,West,271,16.0,16.0,40,0.00,,,0.00,28,Wunderground v.1.15,2013-06-16 22:20:00,
2013-06-16 16:31:00,58.6,36.7,29.85,WNW,282,19.0,20.0,44,0.00,,,0.00,23,Wunderground v.1.15,2013-06-16 22:31:00,
2013-06-16 16:40:00,57.8,37.1,29.88,West,276,18.0,18.0,46,0.00,,,0.00,21,Wunderground v.1.15,2013-06-16 22:40:00,
2013-06-16 16:51:00,57.5,39.0,29.89,West,259,13.0,13.0,50,0.00,,,0.00,18,Wunderground v.1.15,2013-06-16 22:51:00,
2013-06-16 17:00:00,56.0,38.6,29.90,WSW,254,10.0,14.0,52,0.00,,,0.00,18,Wunderground v.1.15,2013-06-16 23:00:00,
2013-06-16 17:10:00,54.1,38.7,29.91,WSW,245,11.0,11.0,56,0.00,,,0.00,18,Wunderground v.1.15,2013-06-16 23:10:00,
2013-06-16 17:21:00,54.1,38.7,29.88,South,186,10.0,10.0,56,0.00,,,0.00,37,Wunderground v.1.15,2013-06-16 23:21:00,
2013-06-16 17:30:00,53.9,39.0,29.89,SW,217,3.0,5.0,57,0.00,,,0.00,39,Wunderground v.1.15,2013-06-16 23:30:00,
2013-06-16 17:40:00,53.7,38.8,29.90,WSW,252,2.0,4.0,57,0.00,,,0.00,40,Wunderground v.1.15,2013-06-16 23:40:00,
2013-06-16 17:50:00,53.9,36.7,29.89,WSW,249,3.0,3.0,52,0.00,,,0.00,39,Wunderground v.1.15,2013-06-16 23:50:00,
2013-06-16 18:00:00,54.5,40.9,29.89,WSW,253,1.0,1.0,60,0.00,,,0.00,54,Wunderground v.1.15,2013-06-17 00:00:00,
2013-06-16 18:10:00,54.4,39.5,29.89,NNW,348,2.0,5.0,57,0.00,,,0.00,105,Wunderground v.1.15,2013-06-17 00:10:00,
2013-06-16 18:21:00,54.6,39.7,29.89,SE,140,2.0,2.0,57,0.00,,,0.00,125,Wunderground v.1.15,2013-06-17 00:21:00,
2013-06-16 18:30:00,54.9,38.6,29.89,SW,232,6.0,6.0,54,0.00,,,0.00,111,Wunderground v.1.15,2013-06-17 00:30:00,
2013-06-16 18:40:00,55.0,38.2,29.89,West,261,5.0,5.0,53,0.00,,,0.00,167,Wunderground v.1.15,2013-06-17 00:40:00,
2013-06-16 18:51:00,55.7,37.8,29.89,WSW,239,6.0,6.0,51,0.00,,,0.00,323,Wunderground v.1.15,2013-06-17 00:51:00,
2013-06-16 19:00:00,57.5,39.0,29.89,South,179,3.0,3.0,50,0.00,,,0.00,360,Wunderground v.1.15,2013-06-17 01:00:00,
2013-06-16 19:10:00,58.7,40.1,29.89,SSW,193,3.0,3.0,50,0.00,,,0.00,171,Wunderground v.1.15,2013-06-17 01:10:00,
2013-06-16 19:20:00,58.3,37.6,29.89,WSW,240,1.0,1.0,46,0.00,,,0.00,88,Wunderground v.1.15,2013-06-17 01:20:00,
2013-06-16 19:30:00,57.2,42.1,29.89,WSW,239,0.0,0.0,57,0.00,,,0.00,54,Wunderground v.1.15,2013-06-17 01:30:00,
2013-06-16 19:50:00,52.3,42.0,29.88,West,281,0.0,2.0,68,0.00,,,0.00,40,Wunderground v.1.15,2013-06-17 01:50:00,
2013-06-16 20:01:00,50.9,39.1,29.90,WSW,248,2.0,5.0,64,0.00,,,0.00,21,Wunderground v.1.15,2013-06-17 02:01:00,
2013-06-16 20:10:00,52.8,36.6,29.89,South,190,2.0,3.0,54,0.00,,,0.00,14,Wunderground v.1.15,2013-06-17 02:10:00,
2013-06-16 20:20:00,53.7,37.0,29.88,SSW,192,1.0,1.0,53,0.00,,,0.00,25,Wunderground v.1.15,2013-06-17 02:20:00,
2013-06-16 20:30:00,54.0,39.1,29.87,South,173,1.0,1.0,57,0.00,,,0.00,14,Wunderground v.1.15,2013-06-17 02:30:00,
2013-06-16 20:40:00,53.6,36.9,29.87,ESE,123,1.0,1.0,53,0.00,,,0.00,0,Wunderground v.1.15,2013-06-17 02:40:00,
2013-06-16 20:50:00,53.3,38.9,29.87,South,174,0.0,0.0,58,0.00,,,0.00,0,Wunderground v.1.15,2013-06-17 02:50:00,
2013-06-16 21:00:00,51.6,38.2,29.87,West,273,1.0,1.0,60,0.00,,,0.00,0,Wunderground v.1.15,2013-06-17 03:00:00,
2013-06-16 21:10:00,49.8,38.1,29.87,WSW,253,0.0,0.0,64,0.00,,,0.00,0,Wunderground v.1.15,2013-06-17 03:10:00,
2013-06-16 21:20:00,50.0,34.9,29.87,West,261,2.0,8.0,56,0.00,,,0.00,0,Wunderground v.1.15,2013-06-17 03:20:00,
2013-06-16 21:30:00,52.6,35.5,29.88,SW,229,4.0,5.0,52,0.00,,,0.00,0,Wunderground v.1.15,2013-06-17 03:30:00,
2013-06-16 21:40:00,54.9,33.9,29.88,SW,234,7.0,7.0,45,0.00,,,0.00,0,Wunderground v.1.15,2013-06-17 03:40:00,
2013-06-16 21:50:00,55.7,34.1,29.87,WNW,286,9.0,11.0,44,0.00,,,0.00,0,Wunderground v.1.15,2013-06-17 03:50:00,
2013-06-16 22:00:00,55.8,33.6,29.87,West,279,11.0,12.0,43,0.00,,,0.00,0,Wunderground v.1.15,2013-06-17 04:00:00,
2013-06-16 22:10:00,55.8,33.6,29.86,SW,217,12.0,17.0,43,0.00,,,0.00,0,Wunderground v.1.15,2013-06-17 04:10:00,
2013-06-16 22:20:00,55.9,33.7,29.86,WNW,283,11.0,11.0,43,0.00,,,0.00,0,Wunderground v.1.15,2013-06-17 04:20:00,
2013-06-16 22:30:00,56.0,33.8,29.86,West,267,9.0,11.0,43,0.00,,,0.00,0,Wunderground v.1.15,2013-06-17 04:30:00,
2013-06-16 22:50:00,54.1,33.2,29.86,NNW,346,3.0,3.0,45,0.00,,,0.00,0,Wunderground v.1.15,2013-06-17 04:50:00,
2013-06-16 23:00:00,52.7,34.1,29.87,North,11,1.0,2.0,49,0.00,,,0.00,0,Wunderground v.1.15,2013-06-17 05:00:00,
2013-06-16 23:10:00,51.2,34.6,29.87,North,355,1.0,1.0,53,0.00,,,0.00,0,Wunderground v.1.15,2013-06-17 05:10:00,
2013-06-16 23:21:00,49.0,34.9,29.87,NW,315,1.0,4.0,58,0.00,,,0.00,0,Wunderground v.1.15,2013-06-17 05:21:00,
2013-06-16 23:30:00,48.6,33.6,29.88,NNE,16,4.0,7.0,56,0.00,,,0.00,0,Wunderground v.1.15,2013-06-17 05:30:00,
2013-06-16 23:40:00,48.8,33.8,29.89,NW,321,4.0,4.0,56,0.00,,,0.00,0,Wunderground v.1.15,2013-06-17 05:40:00,
2013-06-16 23:50:00,48.0,34.8,29.89,WNW,296,3.0,3.0,60,0.00,,,0.00,0,Wunderground v.1.15,2013-06-17 05:50:00,